AAL3104 KMIA-KDFW
Flight info
| Callsign | AAL3104 |
|---|---|
| Flight time | N/A |
| Altitude | 32000 |
| Route | GLADZ4 BAGGS REMIS Y280 REDFN Q105 HRV PNUTS BEREE3 |
| Aircraft | B738/M-SDE2E3FGHIRWXY/LB1 |
Departure
| Time | 2026-05-05 22:49 |
|---|---|
| Airport | Miami International Airport (KMIA) |
Arrival
| Time | N/A |
|---|---|
| Airport | Dallas Fort Worth International Airport (KDFW) |
| Time | Latitude | Longitude | Altitude | Speed | Heading |
|---|---|---|---|---|---|
| 2026-05-05 20:49 | 25.79822 | -80.28317 | 15 ft | 0 kts | 178° |
| 2026-05-05 22:39 | 25.79840 | -80.28318 | 18 ft | 4 kts | 178° |
| 2026-05-05 22:40 | 25.79862 | -80.28318 | 15 ft | 3 kts | 179° |
| 2026-05-05 22:40 | 25.79882 | -80.28315 | 17 ft | 4 kts | 227° |
| 2026-05-05 22:40 | 25.79889 | -80.28293 | 17 ft | 4 kts | 267° |
| 2026-05-05 22:40 | 25.79889 | -80.28277 | 15 ft | 1 kts | 267° |
| 2026-05-05 22:45 | 25.79921 | -80.28311 | 14 ft | 14 kts | 350° |
| 2026-05-05 22:45 | 25.80028 | -80.28333 | 14 ft | 16 kts | 317° |
| 2026-05-05 22:46 | 25.80027 | -80.28460 | 14 ft | 21 kts | 267° |
| 2026-05-05 22:46 | 25.80018 | -80.28649 | 19 ft | 26 kts | 268° |
| 2026-05-05 22:46 | 25.80018 | -80.28841 | 21 ft | 25 kts | 271° |
| 2026-05-05 22:46 | 25.80011 | -80.29046 | 19 ft | 29 kts | 266° |
| 2026-05-05 22:47 | 25.79997 | -80.29281 | 19 ft | 32 kts | 267° |
| 2026-05-05 22:47 | 25.79985 | -80.29553 | 13 ft | 38 kts | 268° |
| 2026-05-05 22:47 | 25.79974 | -80.29853 | 11 ft | 40 kts | 268° |
| 2026-05-05 22:47 | 25.80006 | -80.30078 | 12 ft | 21 kts | 286° |
| 2026-05-05 22:48 | 25.80072 | -80.30117 | 14 ft | 1 kts | 65° |
| 2026-05-05 22:48 | 25.80073 | -80.30098 | 13 ft | 4 kts | 85° |
| 2026-05-05 22:48 | 25.80084 | -80.29880 | 12 ft | 68 kts | 87° |
| 2026-05-05 22:48 | 25.80116 | -80.29056 | 19 ft | 143 kts | 88° |
| 2026-05-05 22:49 | 25.80184 | -80.27739 | 363 ft | 184 kts | 87° |
| 2026-05-05 22:49 | 25.80233 | -80.26251 | 1127 ft | 206 kts | 87° |
| 2026-05-05 22:49 | 25.80269 | -80.24590 | 1804 ft | 224 kts | 86° |
| 2026-05-05 22:49 | 25.80340 | -80.22809 | 2522 ft | 237 kts | 86° |
| 2026-05-05 22:50 | 25.80393 | -80.20992 | 3068 ft | 234 kts | 87° |
| 2026-05-05 22:50 | 25.80486 | -80.19163 | 3826 ft | 238 kts | 85° |
| 2026-05-05 22:50 | 25.80782 | -80.17375 | 4668 ft | 238 kts | 66° |
| 2026-05-05 22:50 | 25.81780 | -80.15818 | 4983 ft | 260 kts | 37° |
| 2026-05-05 22:51 | 25.83415 | -80.14959 | 5599 ft | 261 kts | 9° |
| 2026-05-05 22:51 | 25.85204 | -80.14982 | 6400 ft | 258 kts | 345° |
| 2026-05-05 22:51 | 25.86962 | -80.15444 | 7055 ft | 264 kts | 346° |
| 2026-05-05 22:51 | 25.88851 | -80.15662 | 7493 ft | 281 kts | 353° |
| 2026-05-05 22:52 | 25.90766 | -80.16099 | 8152 ft | 282 kts | 338° |
| 2026-05-05 22:52 | 25.92633 | -80.16806 | 8901 ft | 285 kts | 338° |
| 2026-05-05 22:52 | 25.94537 | -80.17499 | 9643 ft | 290 kts | 338° |
| 2026-05-05 22:52 | 25.96463 | -80.18208 | 10314 ft | 293 kts | 333° |
| 2026-05-05 22:53 | 25.98157 | -80.19519 | 10522 ft | 305 kts | 307° |
| 2026-05-05 22:53 | 25.99158 | -80.21632 | 10694 ft | 320 kts | 282° |
| 2026-05-05 22:53 | 25.99523 | -80.24137 | 10866 ft | 339 kts | 275° |
| 2026-05-05 22:53 | 25.99795 | -80.26810 | 11000 ft | 357 kts | 274° |
| 2026-05-05 22:54 | 25.99884 | -80.29617 | 11290 ft | 368 kts | 269° |
| 2026-05-05 22:54 | 25.99831 | -80.32438 | 11815 ft | 371 kts | 268° |
| 2026-05-05 22:54 | 25.99784 | -80.35301 | 12446 ft | 371 kts | 269° |
| 2026-05-05 22:54 | 25.99763 | -80.38177 | 13021 ft | 373 kts | 269° |
| 2026-05-05 22:55 | 25.99658 | -80.41071 | 13527 ft | 376 kts | 260° |
| 2026-05-05 22:55 | 25.98868 | -80.43849 | 14061 ft | 380 kts | 245° |
| 2026-05-05 22:55 | 25.97433 | -80.46321 | 14555 ft | 383 kts | 235° |
| 2026-05-05 22:55 | 25.95783 | -80.48650 | 15032 ft | 385 kts | 234° |
| 2026-05-05 22:56 | 25.94100 | -80.50968 | 15477 ft | 387 kts | 234° |
| 2026-05-05 22:56 | 25.92404 | -80.53310 | 15908 ft | 389 kts | 234° |
| 2026-05-05 22:56 | 25.90712 | -80.55665 | 16359 ft | 391 kts | 234° |
| 2026-05-05 22:56 | 25.89017 | -80.58042 | 16803 ft | 392 kts | 235° |
| 2026-05-05 22:57 | 25.87328 | -80.60423 | 17227 ft | 394 kts | 235° |
| 2026-05-05 22:57 | 25.85627 | -80.62827 | 17635 ft | 396 kts | 235° |
| 2026-05-05 22:57 | 25.83921 | -80.65238 | 18049 ft | 398 kts | 235° |
| 2026-05-05 22:57 | 25.82208 | -80.67658 | 18423 ft | 400 kts | 235° |
| 2026-05-05 22:58 | 25.80484 | -80.70090 | 18767 ft | 401 kts | 235° |
| 2026-05-05 22:58 | 25.78817 | -80.72574 | 19062 ft | 401 kts | 242° |
| 2026-05-05 22:58 | 25.77717 | -80.75393 | 19397 ft | 398 kts | 255° |
| 2026-05-05 22:58 | 25.76963 | -80.78304 | 19758 ft | 398 kts | 256° |
| 2026-05-05 22:59 | 25.76200 | -80.81271 | 20050 ft | 401 kts | 255° |
| 2026-05-05 22:59 | 25.75411 | -80.84252 | 20237 ft | 406 kts | 255° |
| 2026-05-05 22:59 | 25.74592 | -80.87271 | 20404 ft | 410 kts | 255° |
| 2026-05-05 22:59 | 25.73761 | -80.90307 | 20674 ft | 412 kts | 255° |
| 2026-05-05 23:00 | 25.72090 | -80.96408 | 21248 ft | 415 kts | 255° |
| 2026-05-05 23:00 | 25.71252 | -80.99469 | 21599 ft | 413 kts | 255° |
| 2026-05-05 23:00 | 25.70418 | -81.02512 | 21958 ft | 414 kts | 255° |
| 2026-05-05 23:01 | 25.69577 | -81.05582 | 22047 ft | 419 kts | 255° |
| 2026-05-05 23:01 | 25.68725 | -81.08692 | 22221 ft | 422 kts | 255° |
| 2026-05-05 23:01 | 25.67869 | -81.11808 | 22466 ft | 424 kts | 255° |
| 2026-05-05 23:01 | 25.67009 | -81.14942 | 22710 ft | 425 kts | 255° |
| 2026-05-05 23:02 | 25.66157 | -81.18039 | 22934 ft | 426 kts | 255° |
| 2026-05-05 23:02 | 25.65437 | -81.21220 | 23115 ft | 426 kts | 265° |
| 2026-05-05 23:02 | 25.65448 | -81.24507 | 23309 ft | 427 kts | 276° |
| 2026-05-05 23:02 | 25.66097 | -81.27723 | 23513 ft | 430 kts | 288° |
| 2026-05-05 23:03 | 25.67338 | -81.30751 | 23714 ft | 433 kts | 294° |
| 2026-05-05 23:03 | 25.68717 | -81.33723 | 23938 ft | 433 kts | 295° |
| 2026-05-05 23:03 | 25.70115 | -81.36683 | 24148 ft | 433 kts | 295° |
| 2026-05-05 23:03 | 25.71506 | -81.39645 | 24357 ft | 433 kts | 295° |
| 2026-05-05 23:04 | 25.72888 | -81.42622 | 24557 ft | 434 kts | 295° |
| 2026-05-05 23:04 | 25.73797 | -81.44598 | 24682 ft | 434 kts | 295° |
| 2026-05-05 23:04 | 25.75164 | -81.47590 | 24864 ft | 435 kts | 294° |
| 2026-05-05 23:04 | 25.76527 | -81.50591 | 25041 ft | 436 kts | 294° |
| 2026-05-05 23:05 | 25.77892 | -81.53599 | 25222 ft | 437 kts | 294° |
| 2026-05-05 23:05 | 25.79701 | -81.57593 | 25459 ft | 438 kts | 294° |
| 2026-05-05 23:05 | 25.80624 | -81.59631 | 25578 ft | 438 kts | 294° |
| 2026-05-05 23:05 | 25.82436 | -81.63634 | 25809 ft | 439 kts | 294° |
| 2026-05-05 23:06 | 25.83364 | -81.65685 | 25922 ft | 440 kts | 294° |
| 2026-05-05 23:06 | 25.84736 | -81.68720 | 26081 ft | 440 kts | 294° |
| 2026-05-05 23:06 | 25.86112 | -81.71762 | 26232 ft | 441 kts | 294° |
| 2026-05-05 23:06 | 25.87488 | -81.74809 | 26398 ft | 441 kts | 294° |
| 2026-05-05 23:07 | 25.89033 | -81.77757 | 26593 ft | 443 kts | 304° |
| 2026-05-05 23:07 | 25.91152 | -81.80269 | 26822 ft | 449 kts | 316° |
| 2026-05-05 23:07 | 25.93620 | -81.82391 | 27094 ft | 449 kts | 319° |
| 2026-05-05 23:07 | 25.96092 | -81.84428 | 27323 ft | 448 kts | 319° |
| 2026-05-05 23:08 | 25.98612 | -81.86486 | 27545 ft | 448 kts | 319° |
| 2026-05-05 23:08 | 26.01119 | -81.88544 | 27786 ft | 447 kts | 319° |
| 2026-05-05 23:08 | 26.03613 | -81.90606 | 28055 ft | 445 kts | 319° |
| 2026-05-05 23:08 | 26.06092 | -81.92672 | 28340 ft | 443 kts | 318° |
| 2026-05-05 23:09 | 26.08523 | -81.94710 | 28601 ft | 442 kts | 318° |
| 2026-05-05 23:09 | 26.11006 | -81.96798 | 28879 ft | 441 kts | 318° |
| 2026-05-05 23:09 | 26.13446 | -81.98856 | 29158 ft | 440 kts | 318° |
| 2026-05-05 23:09 | 26.15882 | -82.00911 | 29460 ft | 438 kts | 318° |
| 2026-05-05 23:10 | 26.18279 | -82.02935 | 29755 ft | 437 kts | 318° |
| 2026-05-05 23:10 | 26.20696 | -82.04977 | 30054 ft | 436 kts | 318° |
| 2026-05-05 23:10 | 26.23114 | -82.07021 | 30302 ft | 435 kts | 318° |
| 2026-05-05 23:10 | 26.25518 | -82.09053 | 30551 ft | 434 kts | 318° |
| 2026-05-05 23:11 | 26.27922 | -82.11086 | 30797 ft | 433 kts | 318° |
| 2026-05-05 23:11 | 26.30319 | -82.13114 | 31052 ft | 432 kts | 318° |
| 2026-05-05 23:11 | 26.32708 | -82.15137 | 31296 ft | 431 kts | 318° |
| 2026-05-05 23:11 | 26.35091 | -82.17155 | 31560 ft | 430 kts | 318° |
| 2026-05-05 23:12 | 26.37473 | -82.19174 | 31830 ft | 428 kts | 319° |
| 2026-05-05 23:12 | 26.39842 | -82.21183 | 32014 ft | 429 kts | 319° |
| 2026-05-05 23:12 | 26.44604 | -82.25225 | 32009 ft | 429 kts | 319° |
| 2026-05-05 23:13 | 26.49306 | -82.29219 | 32019 ft | 426 kts | 319° |
| 2026-05-05 23:13 | 26.54012 | -82.33220 | 32017 ft | 424 kts | 319° |
| 2026-05-05 23:14 | 26.58702 | -82.37213 | 32015 ft | 423 kts | 319° |
| 2026-05-05 23:14 | 26.63375 | -82.41196 | 32018 ft | 423 kts | 319° |
| 2026-05-05 23:15 | 26.68049 | -82.45184 | 32016 ft | 423 kts | 319° |
| 2026-05-05 23:15 | 26.72735 | -82.49186 | 32019 ft | 423 kts | 319° |
| 2026-05-05 23:16 | 26.77412 | -82.53185 | 32021 ft | 423 kts | 319° |
| 2026-05-05 23:16 | 26.81944 | -82.57063 | 32020 ft | 423 kts | 319° |
| 2026-05-05 23:17 | 26.86692 | -82.61131 | 32022 ft | 423 kts | 319° |
| 2026-05-05 23:17 | 26.91365 | -82.65139 | 32025 ft | 423 kts | 319° |
| 2026-05-05 23:18 | 26.96029 | -82.69144 | 32026 ft | 422 kts | 319° |
| 2026-05-05 23:18 | 27.00690 | -82.73151 | 32026 ft | 422 kts | 319° |
| 2026-05-05 23:19 | 27.05348 | -82.77159 | 32028 ft | 422 kts | 319° |
| 2026-05-05 23:19 | 27.10001 | -82.81167 | 32029 ft | 421 kts | 319° |
| 2026-05-05 23:20 | 27.13901 | -82.85932 | 32026 ft | 415 kts | 298° |
| 2026-05-05 23:20 | 27.16055 | -82.91942 | 32020 ft | 415 kts | 290° |
| 2026-05-05 23:21 | 27.17951 | -82.98078 | 32023 ft | 415 kts | 290° |
| 2026-05-05 23:21 | 27.19858 | -83.04204 | 32024 ft | 415 kts | 291° |
| 2026-05-05 23:22 | 27.21779 | -83.10281 | 32028 ft | 415 kts | 291° |
| 2026-05-05 23:22 | 27.23722 | -83.16395 | 32028 ft | 415 kts | 291° |
| 2026-05-05 23:23 | 27.25666 | -83.22507 | 32023 ft | 415 kts | 291° |
| 2026-05-05 23:23 | 27.27605 | -83.28614 | 32027 ft | 415 kts | 291° |
| 2026-05-05 23:24 | 27.29543 | -83.34729 | 32031 ft | 415 kts | 291° |
| 2026-05-05 23:24 | 27.31476 | -83.40841 | 32032 ft | 415 kts | 291° |
| 2026-05-05 23:25 | 27.33394 | -83.46916 | 32031 ft | 415 kts | 291° |
| 2026-05-05 23:25 | 27.35322 | -83.53033 | 32028 ft | 415 kts | 291° |
| 2026-05-05 23:26 | 27.37247 | -83.59149 | 32031 ft | 415 kts | 291° |
| 2026-05-05 23:26 | 27.39168 | -83.65264 | 32027 ft | 415 kts | 291° |
| 2026-05-05 23:27 | 27.41087 | -83.71386 | 32035 ft | 415 kts | 291° |
| 2026-05-05 23:27 | 27.43004 | -83.77510 | 32030 ft | 414 kts | 291° |
| 2026-05-05 23:28 | 27.44918 | -83.83635 | 32034 ft | 414 kts | 291° |
| 2026-05-05 23:28 | 27.46828 | -83.89759 | 32030 ft | 414 kts | 291° |
| 2026-05-05 23:29 | 27.48736 | -83.95885 | 32033 ft | 414 kts | 291° |
| 2026-05-05 23:29 | 27.50641 | -84.02014 | 32029 ft | 414 kts | 291° |
| 2026-05-05 23:30 | 27.52542 | -84.08140 | 32034 ft | 414 kts | 291° |
| 2026-05-05 23:30 | 27.54430 | -84.14236 | 32032 ft | 414 kts | 291° |
| 2026-05-05 23:31 | 27.56326 | -84.20369 | 32035 ft | 414 kts | 291° |
| 2026-05-05 23:31 | 27.58222 | -84.26510 | 32036 ft | 414 kts | 291° |
| 2026-05-05 23:32 | 27.60113 | -84.32651 | 32035 ft | 414 kts | 291° |
| 2026-05-05 23:32 | 27.62000 | -84.38785 | 32031 ft | 414 kts | 291° |
| 2026-05-05 23:33 | 27.63885 | -84.44925 | 32032 ft | 414 kts | 291° |
| 2026-05-05 23:33 | 27.65763 | -84.51054 | 32033 ft | 414 kts | 291° |
| 2026-05-05 23:34 | 27.67641 | -84.57190 | 32033 ft | 414 kts | 291° |
| 2026-05-05 23:34 | 27.69515 | -84.63329 | 32034 ft | 413 kts | 291° |
| 2026-05-05 23:35 | 27.71374 | -84.69428 | 32039 ft | 414 kts | 291° |
| 2026-05-05 23:35 | 27.73245 | -84.75577 | 32033 ft | 414 kts | 291° |
| 2026-05-05 23:36 | 27.75111 | -84.81719 | 32036 ft | 414 kts | 291° |
| 2026-05-05 23:36 | 27.76977 | -84.87872 | 32034 ft | 414 kts | 291° |
| 2026-05-05 23:37 | 27.78839 | -84.94026 | 32029 ft | 414 kts | 291° |
| 2026-05-05 23:37 | 27.80699 | -85.00185 | 32036 ft | 414 kts | 290° |
| 2026-05-05 23:38 | 27.82544 | -85.06302 | 32036 ft | 414 kts | 290° |
| 2026-05-05 23:38 | 27.84399 | -85.12465 | 32030 ft | 414 kts | 290° |
| 2026-05-05 23:39 | 27.86251 | -85.18631 | 32034 ft | 414 kts | 290° |
| 2026-05-05 23:39 | 27.88100 | -85.24794 | 32031 ft | 414 kts | 290° |
| 2026-05-05 23:40 | 27.89959 | -85.30950 | 32031 ft | 414 kts | 291° |
| 2026-05-05 23:40 | 27.91833 | -85.37108 | 32030 ft | 414 kts | 290° |
| 2026-05-05 23:41 | 27.93702 | -85.43262 | 32033 ft | 414 kts | 290° |
| 2026-05-05 23:41 | 27.95566 | -85.49421 | 32032 ft | 414 kts | 290° |
| 2026-05-05 23:42 | 27.97415 | -85.55544 | 32028 ft | 414 kts | 290° |
| 2026-05-05 23:42 | 27.99272 | -85.61705 | 32028 ft | 414 kts | 290° |
| 2026-05-05 23:43 | 28.01129 | -85.67878 | 31943 ft | 416 kts | 290° |
| 2026-05-05 23:43 | 28.03007 | -85.74132 | 32025 ft | 422 kts | 290° |
| 2026-05-05 23:44 | 28.04897 | -85.80439 | 32025 ft | 423 kts | 289° |
| 2026-05-05 23:44 | 28.06784 | -85.86748 | 32031 ft | 423 kts | 289° |
| 2026-05-05 23:45 | 28.08671 | -85.93067 | 32027 ft | 422 kts | 289° |
| 2026-05-05 23:45 | 28.10537 | -85.99331 | 32027 ft | 422 kts | 289° |
| 2026-05-05 23:46 | 28.12409 | -86.05624 | 32027 ft | 421 kts | 289° |
| 2026-05-05 23:46 | 28.14277 | -86.11916 | 32026 ft | 421 kts | 289° |
| 2026-05-05 23:47 | 28.16142 | -86.18209 | 32027 ft | 421 kts | 289° |
| 2026-05-05 23:47 | 28.18000 | -86.24492 | 32025 ft | 420 kts | 289° |
| 2026-05-05 23:48 | 28.19856 | -86.30779 | 32028 ft | 420 kts | 289° |
| 2026-05-05 23:48 | 28.21707 | -86.37058 | 32027 ft | 420 kts | 289° |
| 2026-05-05 23:49 | 28.23544 | -86.43305 | 32025 ft | 420 kts | 289° |
| 2026-05-05 23:49 | 28.25388 | -86.49588 | 32026 ft | 420 kts | 289° |
| 2026-05-05 23:50 | 28.27230 | -86.55875 | 32024 ft | 420 kts | 289° |
| 2026-05-05 23:50 | 28.29066 | -86.62156 | 32023 ft | 419 kts | 289° |
| 2026-05-05 23:51 | 28.30902 | -86.68445 | 32018 ft | 419 kts | 289° |
| 2026-05-05 23:51 | 28.32428 | -86.73669 | 32018 ft | 419 kts | 289° |
| 2026-05-05 23:52 | 28.34268 | -86.79948 | 32019 ft | 419 kts | 289° |
| 2026-05-05 23:52 | 28.36107 | -86.86229 | 32020 ft | 419 kts | 289° |
| 2026-05-05 23:53 | 28.37943 | -86.92518 | 32018 ft | 419 kts | 289° |
| 2026-05-05 23:53 | 28.39763 | -86.98767 | 32016 ft | 419 kts | 289° |
| 2026-05-05 23:54 | 28.41590 | -87.05050 | 32018 ft | 419 kts | 289° |
| 2026-05-05 23:54 | 28.43413 | -87.11335 | 32016 ft | 419 kts | 289° |
| 2026-05-05 23:55 | 28.45236 | -87.17629 | 32016 ft | 419 kts | 289° |
| 2026-05-05 23:55 | 28.47055 | -87.23922 | 32018 ft | 419 kts | 289° |
| 2026-05-05 23:56 | 28.48869 | -87.30211 | 32016 ft | 419 kts | 288° |
| 2026-05-05 23:56 | 28.50683 | -87.36513 | 32012 ft | 419 kts | 288° |
| 2026-05-05 23:57 | 28.52481 | -87.42769 | 32014 ft | 419 kts | 288° |
| 2026-05-05 23:57 | 28.54290 | -87.49076 | 32013 ft | 418 kts | 288° |
| 2026-05-05 23:58 | 28.56096 | -87.55386 | 32014 ft | 419 kts | 288° |
| 2026-05-05 23:58 | 28.57896 | -87.61689 | 32013 ft | 418 kts | 288° |
| 2026-05-05 23:59 | 28.59681 | -87.67950 | 32011 ft | 419 kts | 288° |
| 2026-05-05 23:59 | 28.61475 | -87.74253 | 32010 ft | 419 kts | 288° |
| 2026-05-06 00:00 | 28.63269 | -87.80571 | 32007 ft | 419 kts | 288° |
| 2026-05-06 00:00 | 28.65058 | -87.86885 | 32009 ft | 419 kts | 288° |
| 2026-05-06 00:01 | 28.66843 | -87.93194 | 32010 ft | 419 kts | 288° |
| 2026-05-06 00:01 | 28.68624 | -87.99503 | 32010 ft | 419 kts | 288° |
| 2026-05-06 00:02 | 28.70404 | -88.05820 | 32010 ft | 418 kts | 288° |
| 2026-05-06 00:02 | 28.72179 | -88.12138 | 32006 ft | 418 kts | 288° |
| 2026-05-06 00:03 | 28.73937 | -88.18415 | 32005 ft | 418 kts | 288° |
| 2026-05-06 00:03 | 28.75701 | -88.24733 | 32006 ft | 418 kts | 288° |
| 2026-05-06 00:04 | 28.77463 | -88.31051 | 32001 ft | 418 kts | 288° |
| 2026-05-06 00:04 | 28.79220 | -88.37363 | 32001 ft | 418 kts | 287° |
| 2026-05-06 00:05 | 28.81851 | -88.46844 | 32000 ft | 417 kts | 287° |
| 2026-05-06 00:06 | 28.83599 | -88.53155 | 31999 ft | 417 kts | 287° |
| 2026-05-06 00:06 | 28.85342 | -88.59463 | 32001 ft | 417 kts | 287° |
| 2026-05-06 00:07 | 28.87089 | -88.65780 | 31996 ft | 417 kts | 288° |
| 2026-05-06 00:07 | 28.89620 | -88.71681 | 31999 ft | 419 kts | 300° |
| 2026-05-06 00:08 | 28.93262 | -88.76893 | 31996 ft | 421 kts | 308° |
| 2026-05-06 00:08 | 28.97110 | -88.81936 | 31994 ft | 420 kts | 308° |
| 2026-05-06 00:09 | 29.00943 | -88.86987 | 31990 ft | 420 kts | 307° |
| 2026-05-06 00:09 | 29.04750 | -88.92040 | 31991 ft | 419 kts | 307° |
| 2026-05-06 00:10 | 29.08544 | -88.97093 | 31987 ft | 418 kts | 307° |
| 2026-05-06 00:10 | 29.12330 | -89.02143 | 31990 ft | 418 kts | 307° |
| 2026-05-06 00:11 | 29.16109 | -89.07192 | 31985 ft | 417 kts | 307° |
| 2026-05-06 00:11 | 29.19888 | -89.12244 | 31984 ft | 417 kts | 307° |
| 2026-05-06 00:12 | 29.23637 | -89.17264 | 31982 ft | 417 kts | 307° |
| 2026-05-06 00:12 | 29.27400 | -89.22308 | 31981 ft | 416 kts | 307° |
| 2026-05-06 00:13 | 29.31160 | -89.27354 | 31980 ft | 416 kts | 307° |
| 2026-05-06 00:13 | 29.34921 | -89.32408 | 31980 ft | 416 kts | 307° |
| 2026-05-06 00:14 | 29.38679 | -89.37465 | 31982 ft | 416 kts | 307° |
| 2026-05-06 00:14 | 29.42415 | -89.42497 | 31977 ft | 416 kts | 306° |
| 2026-05-06 00:15 | 29.46166 | -89.47557 | 31979 ft | 416 kts | 306° |
| 2026-05-06 00:15 | 29.49915 | -89.52620 | 31979 ft | 416 kts | 306° |
| 2026-05-06 00:16 | 29.53659 | -89.57684 | 31980 ft | 416 kts | 306° |
| 2026-05-06 00:16 | 29.57404 | -89.62755 | 31974 ft | 416 kts | 306° |